LFLC/CFE METAR and TAF weather

Enter ICAO airport designator
Station Type Date Time Source
LFLC METAR 2020/10/29 17:00 UTC NOAA

LFLC 291700Z AUTO 24008KT 9999 BKN040 15/08 Q1025 NOSIG


Station Type Date Time Source
LFLC Decoded METAR 2020/10/29 17:00 UTC NOAA

Clermont-Ferrand, France (LFLC) 45-47N 003-10E 330M
Oct 29, 2020 - 01:00 PM EDT / 2020.10.29 1700 UTC
Wind: from the WSW (240 degrees) at 9 MPH (8 KT):0
Visibility: greater than 7 mile(s):0
Sky conditions: mostly cloudy
Temperature: 59 F (15 C)
Dew Point: 46 F (8 C)
Relative Humidity: 62%
Pressure (altimeter): 30.27 in. Hg (1025 hPa)
ob: LFLC 291700Z AUTO 24008KT 9999 BKN040 15/08 Q1025 NOSIG
cycle: 17

Station Type Date Time Source
LFLC TAF 2020/10/29 18:21 UTC NOAA

TAF LFLC 291700Z 2918/3018 24005KT 9999 BKN040
BECMG 2918/2920 CAVOK PROB40
TEMPO 3003/3009 3000 BR

Example: see airport list